createdAt,value
2023-03-30T00:00:08.134Z,67.91
2023-03-30T00:01:05.963Z,67.91
2023-03-30T00:02:06.699Z,67.91
2023-03-30T00:03:05.590Z,68.21
2023-03-30T00:04:05.671Z,67.34
2023-03-30T00:05:05.526Z,67.34
2023-03-30T00:06:05.624Z,67.15
2023-03-30T00:07:05.294Z,67.15
2023-03-30T00:08:05.255Z,67.34
2023-03-30T00:09:05.210Z,67.72
2023-03-30T00:10:06.351Z,68.01
2023-03-30T00:11:05.203Z,67.54
2023-03-30T00:12:06.370Z,67.63
2023-03-30T00:13:05.035Z,68.01
2023-03-30T00:14:05.148Z,68.21
2023-03-30T00:15:04.970Z,67.91
2023-03-30T00:16:05.022Z,68.40
2023-03-30T00:17:04.862Z,68.21
2023-03-30T00:18:26.177Z,68.30
2023-03-30T00:19:04.957Z,68.11
2023-03-30T00:20:04.761Z,68.30
2023-03-30T00:21:04.973Z,68.30
2023-03-30T00:22:04.908Z,69.23
2023-03-30T00:23:04.599Z,69.54
2023-03-30T00:24:04.708Z,69.17
2023-03-30T00:25:04.769Z,69.60
2023-03-30T00:26:04.493Z,69.70
2023-03-30T00:27:04.426Z,69.60
2023-03-30T00:28:04.541Z,70.56
2023-03-30T00:29:04.450Z,71.04
2023-03-30T00:30:04.573Z,70.95
2023-03-30T00:31:04.464Z,71.23
2023-03-30T00:32:04.209Z,71.42
2023-03-30T00:33:04.291Z,71.81
2023-03-30T00:34:04.371Z,72.09
2023-03-30T00:35:09.353Z,72.38
2023-03-30T00:36:04.228Z,72.29
2023-03-30T00:37:03.986Z,72.00
2023-03-30T00:38:03.952Z,72.34
2023-03-30T00:39:04.013Z,72.44
2023-03-30T00:40:03.855Z,72.25
2023-03-30T00:41:04.195Z,72.29
2023-03-30T00:42:03.795Z,72.19
2023-03-30T00:43:03.938Z,72.16
2023-03-30T00:44:03.682Z,72.29
2023-03-30T00:45:03.740Z,71.81
2023-03-30T00:46:03.668Z,71.62
2023-03-30T00:47:05.010Z,72.38
2023-03-30T00:48:03.572Z,71.71
2023-03-30T00:49:03.568Z,71.52
2023-03-30T00:50:03.414Z,71.71
2023-03-30T00:51:24.464Z,71.52
2023-03-30T00:52:03.335Z,72.09
2023-03-30T00:53:03.384Z,72.09
2023-03-30T00:54:03.240Z,70.95
2023-03-30T00:55:03.200Z,71.33
2023-03-30T00:56:03.166Z,71.04
2023-03-30T00:58:03.073Z,71.81
2023-03-30T00:59:03.427Z,72.29
2023-03-30T01:00:02.980Z,72.96
2023-03-30T01:01:03.259Z,74.01
2023-03-30T01:02:02.938Z,74.97
2023-03-30T01:03:04.196Z,75.31
2023-03-30T01:04:04.036Z,75.26
2023-03-30T01:05:02.975Z,75.31
2023-03-30T01:06:02.713Z,76.18
2023-03-30T01:07:02.701Z,76.08
2023-03-30T01:08:02.628Z,75.98
2023-03-30T01:09:02.794Z,75.79
2023-03-30T01:10:02.549Z,75.98
2023-03-30T01:11:05.117Z,76.46
2023-03-30T01:12:02.451Z,77.13
2023-03-30T01:13:02.410Z,77.04
2023-03-30T01:14:02.366Z,77.33
2023-03-30T01:15:03.447Z,77.42
2023-03-30T01:16:02.314Z,77.70
2023-03-30T01:17:24.470Z,77.70
2023-03-30T01:18:02.227Z,76.94
2023-03-30T01:19:02.148Z,77.70
2023-03-30T01:20:02.355Z,77.90
2023-03-30T01:21:02.142Z,78.09
2023-03-30T01:22:02.173Z,77.90
2023-03-30T01:23:02.013Z,78.28
2023-03-30T01:24:24.094Z,78.76
2023-03-30T01:25:01.893Z,78.76
2023-03-30T01:26:01.994Z,79.14
2023-03-30T01:27:01.794Z,79.05
2023-03-30T01:28:02.005Z,78.95
2023-03-30T01:29:01.963Z,79.33
2023-03-30T01:30:01.847Z,79.72
2023-03-30T01:31:01.863Z,79.72
2023-03-30T01:32:22.774Z,79.62
2023-03-30T01:33:01.573Z,79.43
2023-03-30T01:34:01.643Z,79.81
2023-03-30T01:35:01.709Z,79.81
2023-03-30T01:36:01.726Z,79.62
2023-03-30T01:37:01.362Z,79.62
2023-03-30T01:38:01.465Z,79.81
2023-03-30T01:39:01.279Z,79.52
2023-03-30T01:40:02.402Z,79.81
2023-03-30T01:41:01.673Z,79.52
2023-03-30T01:42:01.612Z,79.43
2023-03-30T01:43:01.102Z,79.52
2023-03-30T01:44:01.203Z,79.72
2023-03-30T01:45:01.013Z,80.19
2023-03-30T01:46:02.054Z,80.38
2023-03-30T01:47:00.994Z,80.63
2023-03-30T01:48:00.905Z,81.34
2023-03-30T01:49:00.838Z,80.96
2023-03-30T01:50:00.943Z,81.25
2023-03-30T01:51:00.862Z,81.11
2023-03-30T01:52:00.953Z,81.11
2023-03-30T01:53:00.824Z,81.78
2023-03-30T01:54:00.621Z,81.68
2023-03-30T01:55:00.579Z,81.21
2023-03-30T01:56:00.779Z,80.16
2023-03-30T01:57:00.505Z,80.67
2023-03-30T01:58:02.636Z,81.21
2023-03-30T01:59:00.428Z,81.49
2023-03-30T02:00:00.360Z,82.64
2023-03-30T02:01:00.323Z,83.06
2023-03-30T02:02:22.531Z,83.22
2023-03-30T02:03:00.357Z,82.68
2023-03-30T02:04:00.278Z,82.87
2023-03-30T02:05:02.603Z,83.16
2023-03-30T02:06:00.128Z,82.35
2023-03-30T02:07:01.168Z,82.54
2023-03-30T02:08:00.041Z,82.74
2023-03-30T02:09:00.158Z,82.54
2023-03-30T02:09:59.924Z,82.64
2023-03-30T02:11:00.171Z,83.12
2023-03-30T02:11:59.973Z,83.12
2023-03-30T02:12:59.803Z,83.40
2023-03-30T02:13:59.889Z,83.40
2023-03-30T02:14:59.707Z,83.79
2023-03-30T02:15:59.909Z,83.89
2023-03-30T02:16:59.637Z,83.60
2023-03-30T02:18:00.917Z,83.89
2023-03-30T02:19:01.666Z,83.79
2023-03-30T02:19:59.500Z,83.89
2023-03-30T02:20:59.631Z,83.40
2023-03-30T02:21:59.400Z,84.17
2023-03-30T02:22:59.553Z,83.98
2023-03-30T02:23:59.505Z,84.84
2023-03-30T02:24:59.356Z,84.46
2023-03-30T02:25:59.223Z,85.13
2023-03-30T02:26:59.367Z,84.65
2023-03-30T02:27:59.143Z,83.89
2023-03-30T02:28:59.095Z,84.36
2023-03-30T02:29:59.237Z,84.23
2023-03-30T02:30:59.189Z,83.65
2023-03-30T02:31:59.041Z,84.32
2023-03-30T02:33:00.158Z,84.42
2023-03-30T02:33:58.877Z,83.84
2023-03-30T02:34:58.829Z,84.42
2023-03-30T02:35:58.862Z,84.99
2023-03-30T02:36:58.828Z,85.57
2023-03-30T02:37:58.694Z,86.47
2023-03-30T02:38:58.842Z,86.71
2023-03-30T02:39:58.614Z,87.19
2023-03-30T02:40:58.565Z,87.71
2023-03-30T02:41:58.594Z,87.71
2023-03-30T02:43:00.627Z,87.86
2023-03-30T02:43:58.432Z,88.19
2023-03-30T02:44:58.588Z,88.24
2023-03-30T02:45:58.375Z,87.76
2023-03-30T02:46:58.304Z,87.48
2023-03-30T02:48:03.903Z,87.38
2023-03-30T02:49:00.348Z,86.94
2023-03-30T02:49:58.179Z,86.43
2023-03-30T02:51:58.081Z,86.28
2023-03-30T02:52:58.044Z,86.23
2023-03-30T02:53:58.019Z,86.37
2023-03-30T02:54:58.144Z,86.14
2023-03-30T02:55:57.907Z,85.71
2023-03-30T02:56:59.023Z,85.75
2023-03-30T02:57:57.824Z,86.08
2023-03-30T02:58:57.777Z,85.61
2023-03-30T02:59:57.771Z,84.75
2023-03-30T03:00:59.473Z,85.13
2023-03-30T03:01:57.674Z,84.94
2023-03-30T03:02:57.861Z,84.46
2023-03-30T03:03:57.560Z,83.98
2023-03-30T03:04:57.518Z,83.98
2023-03-30T03:05:58.941Z,83.89
2023-03-30T03:06:57.436Z,84.08
2023-03-30T03:07:57.630Z,83.98
2023-03-30T03:08:57.348Z,83.22
2023-03-30T03:09:58.459Z,84.36
2023-03-30T03:10:57.442Z,83.69
2023-03-30T03:11:57.393Z,83.89
2023-03-30T03:12:57.392Z,82.64
2023-03-30T03:13:57.117Z,82.64
2023-03-30T03:14:57.365Z,82.07
2023-03-30T03:15:57.071Z,82.54
2023-03-30T03:16:57.033Z,82.64
2023-03-30T03:17:57.452Z,83.03
2023-03-30T03:18:56.922Z,83.06
2023-03-30T03:19:56.997Z,82.59
2023-03-30T03:20:56.813Z,83.45
2023-03-30T03:21:58.032Z,83.64
2023-03-30T03:22:56.729Z,83.16
2023-03-30T03:23:57.844Z,82.87
2023-03-30T03:24:56.643Z,82.49
2023-03-30T03:25:56.733Z,82.68
2023-03-30T03:26:56.553Z,82.01
2023-03-30T03:27:57.978Z,82.64
2023-03-30T03:28:56.761Z,83.03
2023-03-30T03:29:56.456Z,83.03
2023-03-30T03:30:57.550Z,83.60
2023-03-30T03:31:56.355Z,84.17
2023-03-30T03:32:56.499Z,83.50
2023-03-30T03:33:56.246Z,83.69
2023-03-30T03:34:56.207Z,83.50
2023-03-30T03:35:56.636Z,84.17
2023-03-30T03:36:56.145Z,83.60
2023-03-30T03:37:56.202Z,83.31
2023-03-30T03:38:56.263Z,83.31
2023-03-30T03:39:56.218Z,83.40
2023-03-30T03:40:55.956Z,83.60
2023-03-30T03:42:17.127Z,83.79
2023-03-30T03:42:55.868Z,83.60
2023-03-30T03:43:55.824Z,84.08
2023-03-30T03:44:56.052Z,84.17
2023-03-30T03:45:55.735Z,84.08
2023-03-30T03:46:55.757Z,84.75
2023-03-30T03:47:55.873Z,84.55
2023-03-30T03:48:55.789Z,84.08
2023-03-30T03:49:55.550Z,84.08
2023-03-30T03:50:55.797Z,84.08
2023-03-30T03:51:55.468Z,84.94
2023-03-30T03:52:55.443Z,84.75
2023-03-30T03:53:57.651Z,84.94
2023-03-30T03:54:55.342Z,85.22
2023-03-30T03:55:55.425Z,84.94
2023-03-30T03:56:55.269Z,84.94
2023-03-30T03:57:57.478Z,84.94
2023-03-30T03:58:55.192Z,84.94
2023-03-30T03:59:56.176Z,85.51
2023-03-30T04:00:55.373Z,85.22
2023-03-30T04:01:55.302Z,85.28
2023-03-30T04:02:55.030Z,85.03
2023-03-30T04:03:56.200Z,85.32
2023-03-30T04:04:54.999Z,84.94
2023-03-30T04:05:54.976Z,84.94
2023-03-30T04:06:54.828Z,85.41
2023-03-30T04:07:54.886Z,85.89
2023-03-30T04:08:54.721Z,85.47
2023-03-30T04:09:55.039Z,85.66
2023-03-30T04:10:54.629Z,85.85
2023-03-30T04:11:56.759Z,85.94
2023-03-30T04:12:54.566Z,86.14
2023-03-30T04:13:55.769Z,86.52
2023-03-30T04:14:54.469Z,86.43
2023-03-30T04:15:54.572Z,87.00
2023-03-30T04:16:54.414Z,87.29
2023-03-30T04:17:54.602Z,86.33
2023-03-30T04:18:54.585Z,86.43
2023-03-30T04:19:54.362Z,86.23
2023-03-30T04:20:54.195Z,86.23
2023-03-30T04:21:54.378Z,86.14
2023-03-30T04:22:54.180Z,86.43
2023-03-30T04:23:56.242Z,86.43
2023-03-30T04:24:54.023Z,86.52
2023-03-30T04:25:54.201Z,86.23
2023-03-30T04:26:53.934Z,86.33
2023-03-30T04:27:55.150Z,85.75
2023-03-30T04:28:53.923Z,85.28
2023-03-30T04:29:55.060Z,85.47
2023-03-30T04:30:53.779Z,85.47
2023-03-30T04:31:53.884Z,84.99
2023-03-30T04:32:53.732Z,85.18
2023-03-30T04:33:55.881Z,84.80
2023-03-30T04:34:53.590Z,84.89
2023-03-30T04:35:53.819Z,84.89
2023-03-30T04:36:53.492Z,84.80
2023-03-30T04:37:53.685Z,84.89
2023-03-30T04:38:53.413Z,84.61
2023-03-30T04:39:53.388Z,84.80
2023-03-30T04:40:53.321Z,84.99
2023-03-30T04:41:53.505Z,84.99
2023-03-30T04:42:53.230Z,84.80
2023-03-30T04:43:53.313Z,85.18
2023-03-30T04:44:53.148Z,85.09
2023-03-30T04:45:53.437Z,85.75
2023-03-30T04:46:53.058Z,85.57
2023-03-30T04:47:53.263Z,85.18
2023-03-30T04:48:52.973Z,85.09
2023-03-30T04:49:53.058Z,85.09
2023-03-30T04:50:52.908Z,84.80
2023-03-30T04:51:52.840Z,85.28
2023-03-30T04:52:53.077Z,84.89
2023-03-30T04:53:52.753Z,85.28
2023-03-30T04:54:52.887Z,86.14
2023-03-30T04:55:52.660Z,85.75
2023-03-30T04:56:54.038Z,84.89
2023-03-30T04:57:52.870Z,84.42
2023-03-30T04:58:52.570Z,84.99
2023-03-30T04:59:54.250Z,84.89
2023-03-30T05:00:52.485Z,85.09
2023-03-30T05:01:54.682Z,84.99
2023-03-30T05:02:52.479Z,84.89
2023-03-30T05:03:52.342Z,83.37
2023-03-30T05:04:52.550Z,83.65
2023-03-30T05:05:52.221Z,83.37
2023-03-30T05:06:52.362Z,82.31
2023-03-30T05:07:52.312Z,81.84
2023-03-30T05:08:54.409Z,82.35
2023-03-30T05:09:52.035Z,82.03
2023-03-30T05:10:53.144Z,82.22
2023-03-30T05:11:51.958Z,81.97
2023-03-30T05:12:52.182Z,82.74
2023-03-30T05:13:51.940Z,82.31
2023-03-30T05:14:53.966Z,82.12
2023-03-30T05:15:51.804Z,82.26
2023-03-30T05:16:51.986Z,82.41
2023-03-30T05:17:51.748Z,81.78
2023-03-30T05:18:52.960Z,82.07
2023-03-30T05:19:56.920Z,81.97
2023-03-30T05:20:52.770Z,81.02
2023-03-30T05:21:51.561Z,81.21
2023-03-30T05:22:51.476Z,80.82
2023-03-30T05:23:51.567Z,80.54
2023-03-30T05:24:51.379Z,80.54
2023-03-30T05:25:51.636Z,80.35
2023-03-30T05:26:51.286Z,79.49
2023-03-30T05:27:51.252Z,79.20
2023-03-30T05:28:51.206Z,79.00
2023-03-30T05:29:51.402Z,78.91
2023-03-30T05:30:52.502Z,79.39
2023-03-30T05:31:52.264Z,79.39
2023-03-30T05:32:51.083Z,79.00
2023-03-30T05:33:50.983Z,79.20
2023-03-30T05:34:51.132Z,78.91
2023-03-30T05:35:50.962Z,78.63
2023-03-30T05:36:51.987Z,78.76
2023-03-30T05:37:50.804Z,78.24
2023-03-30T05:38:51.985Z,78.34
2023-03-30T05:39:50.732Z,78.14
2023-03-30T05:40:51.893Z,78.53
2023-03-30T05:41:50.622Z,78.38
2023-03-30T05:42:51.903Z,78.28
2023-03-30T05:43:50.541Z,78.28
2023-03-30T05:44:51.718Z,77.70
2023-03-30T05:45:50.454Z,77.99
2023-03-30T05:46:50.562Z,78.19
2023-03-30T05:47:50.403Z,78.19
2023-03-30T05:48:50.511Z,78.09
2023-03-30T05:49:50.277Z,78.28
2023-03-30T05:50:50.325Z,77.90
2023-03-30T05:51:50.188Z,77.13
2023-03-30T05:52:50.344Z,77.04
2023-03-30T05:53:50.105Z,77.33
2023-03-30T05:54:50.355Z,77.51
2023-03-30T05:55:50.015Z,77.13
2023-03-30T05:56:52.286Z,77.33
2023-03-30T05:57:49.979Z,77.90
2023-03-30T05:58:51.098Z,78.09
2023-03-30T05:59:49.837Z,77.42
2023-03-30T06:03:47.995Z,77.09
2023-03-30T06:04:47.681Z,78.24
2023-03-30T06:05:48.701Z,78.14
2023-03-30T06:06:47.628Z,78.91
2023-03-30T06:08:09.807Z,78.72
2023-03-30T06:08:47.535Z,78.28
2023-03-30T06:09:47.495Z,78.19
2023-03-30T06:10:47.407Z,78.09
2023-03-30T06:12:08.400Z,77.90
2023-03-30T06:12:47.317Z,77.80
2023-03-30T06:14:09.641Z,77.99
2023-03-30T06:14:47.266Z,77.42
2023-03-30T06:15:47.196Z,78.19
2023-03-30T06:16:47.419Z,77.90
2023-03-30T06:17:47.176Z,78.76
2023-03-30T06:19:08.245Z,79.24
2023-03-30T06:19:47.038Z,78.95
2023-03-30T06:20:47.170Z,78.09
2023-03-30T06:21:46.939Z,77.23
2023-03-30T06:22:47.147Z,77.08
2023-03-30T06:23:47.970Z,76.79
2023-03-30T06:24:46.892Z,76.65
2023-03-30T06:25:46.800Z,76.02
2023-03-30T06:26:47.937Z,76.12
2023-03-30T06:27:46.660Z,76.89
2023-03-30T06:28:46.710Z,76.50
2023-03-30T06:29:46.573Z,75.73
2023-03-30T06:30:47.951Z,76.12
2023-03-30T06:31:46.530Z,75.35
2023-03-30T06:32:46.588Z,75.54
2023-03-30T06:33:46.545Z,74.01
2023-03-30T06:34:46.436Z,73.63
2023-03-30T06:35:46.521Z,73.82
2023-03-30T06:36:46.391Z,75.16
2023-03-30T06:37:47.303Z,73.91
2023-03-30T06:38:46.179Z,73.82
2023-03-30T06:39:46.136Z,72.86
2023-03-30T06:40:46.101Z,73.82
2023-03-30T06:41:46.199Z,74.40
2023-03-30T06:42:46.256Z,74.58
2023-03-30T06:43:47.033Z,74.84
2023-03-30T06:44:48.077Z,75.16
2023-03-30T06:45:45.915Z,74.93
2023-03-30T06:46:45.834Z,75.16
2023-03-30T06:47:46.174Z,74.68
2023-03-30T06:48:45.872Z,73.82
2023-03-30T06:49:45.841Z,73.72
2023-03-30T06:50:45.655Z,73.72
2023-03-30T06:51:45.610Z,73.72
2023-03-30T06:52:45.570Z,73.82
2023-03-30T06:53:46.690Z,73.44
2023-03-30T06:54:45.730Z,73.44
2023-03-30T06:56:08.521Z,72.73
2023-03-30T06:56:45.444Z,72.73
2023-03-30T06:57:45.345Z,72.73
2023-03-30T06:58:45.305Z,73.40
2023-03-30T06:59:45.312Z,73.21
2023-03-30T07:00:45.220Z,72.92
2023-03-30T07:01:45.504Z,72.77
2023-03-30T07:02:45.167Z,72.77
2023-03-30T07:03:45.139Z,72.38
2023-03-30T07:04:45.293Z,72.00
2023-03-30T07:05:44.998Z,72.19
2023-03-30T07:06:45.047Z,72.00
2023-03-30T07:07:44.914Z,71.52
2023-03-30T07:08:45.063Z,71.62
2023-03-30T07:09:44.873Z,71.27
2023-03-30T07:10:44.872Z,71.46
2023-03-30T07:11:44.740Z,70.41
2023-03-30T07:12:44.886Z,70.70
2023-03-30T07:13:44.652Z,70.25
2023-03-30T07:14:44.695Z,69.96
2023-03-30T07:15:44.804Z,68.81
2023-03-30T07:16:44.577Z,68.24
2023-03-30T07:17:44.734Z,68.24
2023-03-30T07:18:44.442Z,67.99
2023-03-30T07:19:44.530Z,67.50
2023-03-30T07:20:44.411Z,67.79
2023-03-30T07:21:44.303Z,67.32
2023-03-30T07:22:44.453Z,67.50
2023-03-30T07:23:44.404Z,66.45
2023-03-30T07:24:44.361Z,66.00
2023-03-30T07:25:44.134Z,66.10
2023-03-30T07:26:45.198Z,66.39
2023-03-30T07:27:44.050Z,65.72
2023-03-30T07:28:44.190Z,65.72
2023-03-30T07:29:44.006Z,65.91
2023-03-30T07:30:44.164Z,66.10
2023-03-30T07:31:44.243Z,65.72
2023-03-30T07:32:43.999Z,66.19
2023-03-30T07:33:44.941Z,65.43
2023-03-30T07:34:43.761Z,64.85
2023-03-30T07:35:45.897Z,64.37
2023-03-30T07:36:43.669Z,63.99
2023-03-30T07:37:44.766Z,64.18
2023-03-30T07:38:43.586Z,64.18
2023-03-30T07:39:45.848Z,64.18
2023-03-30T07:40:43.505Z,63.79
2023-03-30T07:41:45.616Z,64.66
2023-03-30T07:42:43.424Z,63.99
2023-03-30T07:43:43.575Z,64.76
2023-03-30T07:44:43.341Z,65.14
2023-03-30T07:45:43.285Z,65.05
2023-03-30T07:46:43.283Z,64.66
2023-03-30T07:47:43.314Z,65.14
2023-03-30T07:48:43.411Z,64.37
2023-03-30T07:49:43.119Z,64.18
2023-03-30T07:50:43.226Z,64.28
2023-03-30T07:51:43.231Z,64.28
2023-03-30T07:52:43.006Z,63.99
2023-03-30T07:53:43.242Z,64.28
2023-03-30T07:54:42.919Z,64.56
2023-03-30T07:55:43.064Z,65.01
2023-03-30T07:56:42.955Z,64.82
2023-03-30T07:57:42.783Z,64.85
2023-03-30T07:58:42.756Z,64.37
2023-03-30T07:59:42.987Z,63.86
2023-03-30T08:00:42.660Z,63.99
2023-03-30T08:01:42.785Z,64.18
2023-03-30T08:02:42.634Z,63.99
2023-03-30T08:03:42.687Z,64.53
2023-03-30T08:04:42.595Z,64.76
2023-03-30T08:05:42.615Z,64.76
2023-03-30T08:06:42.415Z,64.85
2023-03-30T08:07:42.434Z,64.76
2023-03-30T08:08:42.323Z,64.18
2023-03-30T08:09:42.452Z,63.99
2023-03-30T08:10:42.495Z,64.28
2023-03-30T08:11:42.251Z,64.31
2023-03-30T08:12:42.207Z,64.31
2023-03-30T08:13:43.186Z,63.70
2023-03-30T08:14:42.102Z,63.70
2023-03-30T08:15:42.256Z,63.64
2023-03-30T08:16:42.039Z,64.02
2023-03-30T08:17:43.057Z,63.06
2023-03-30T08:18:41.905Z,63.64
2023-03-30T08:19:44.062Z,63.06
2023-03-30T08:20:41.807Z,62.48
2023-03-30T08:21:41.915Z,61.81
2023-03-30T08:22:49.135Z,62.01
2023-03-30T08:23:43.769Z,62.13
2023-03-30T08:24:41.638Z,62.29
2023-03-30T08:25:41.741Z,61.52
2023-03-30T08:26:41.601Z,61.24
2023-03-30T08:27:41.549Z,61.24
2023-03-30T08:28:41.588Z,60.85
2023-03-30T08:29:41.439Z,61.14
2023-03-30T08:31:08.327Z,61.33
2023-03-30T08:31:41.370Z,61.24
2023-03-30T08:32:41.399Z,61.24
2023-03-30T08:33:41.277Z,61.17
2023-03-30T08:34:41.224Z,60.98
2023-03-30T08:36:02.492Z,60.11
2023-03-30T08:36:41.147Z,59.16
2023-03-30T08:37:42.370Z,59.16
2023-03-30T08:38:41.059Z,59.19
2023-03-30T08:39:42.157Z,59.19
2023-03-30T08:40:42.051Z,58.70
2023-03-30T08:41:42.105Z,58.89
2023-03-30T08:42:43.094Z,59.19
2023-03-30T08:43:40.857Z,58.70
2023-03-30T08:44:41.876Z,58.67
2023-03-30T08:45:42.648Z,59.16
2023-03-30T08:46:40.731Z,59.57
2023-03-30T08:47:40.753Z,59.28
2023-03-30T08:48:42.724Z,59.09
2023-03-30T08:49:40.625Z,58.99
2023-03-30T08:50:40.796Z,58.89
2023-03-30T08:51:40.745Z,58.42
2023-03-30T08:52:40.479Z,58.99
2023-03-30T08:53:40.438Z,58.22
2023-03-30T08:54:40.520Z,58.13
2023-03-30T08:55:40.350Z,58.51
2023-03-30T08:56:40.375Z,58.48
2023-03-30T08:57:42.435Z,59.34
2023-03-30T08:58:40.395Z,59.54
2023-03-30T08:59:41.391Z,60.69
2023-03-30T09:00:40.152Z,60.47
2023-03-30T09:01:42.225Z,60.38
2023-03-30T09:02:40.086Z,60.47
2023-03-30T09:03:41.226Z,60.28
2023-03-30T09:04:40.002Z,60.75
2023-03-30T09:05:42.032Z,61.33
2023-03-30T09:06:39.902Z,62.19
2023-03-30T09:07:42.362Z,62.77
2023-03-30T09:08:39.808Z,64.09
2023-03-30T09:09:39.909Z,63.99
2023-03-30T09:10:39.731Z,64.63
2023-03-30T09:11:39.926Z,65.88
2023-03-30T09:12:39.657Z,66.06
2023-03-30T09:13:39.742Z,66.74
2023-03-30T09:14:39.557Z,68.18
2023-03-30T09:15:39.672Z,69.10
2023-03-30T09:16:39.530Z,71.37
2023-03-30T09:17:39.717Z,71.37
2023-03-30T09:18:40.534Z,74.15
2023-03-30T09:19:40.495Z,75.01
2023-03-30T09:20:39.347Z,78.51
2023-03-30T09:21:39.268Z,79.52
2023-03-30T09:22:39.554Z,82.30
2023-03-30T09:23:39.308Z,86.28
2023-03-30T09:24:39.131Z,85.41
2023-03-30T09:25:39.213Z,90.39
2023-03-30T09:26:39.040Z,93.74
2023-03-30T09:27:39.003Z,94.74
2023-03-30T09:28:38.987Z,97.61
2023-03-30T09:29:40.061Z,97.90
2023-03-30T09:30:38.870Z,98.95
2023-03-30T09:31:40.320Z,99.95
2023-03-30T09:32:38.822Z,99.99
2023-03-30T09:33:38.733Z,99.99
2023-03-30T09:34:39.787Z,99.99
2023-03-30T09:35:38.650Z,99.99
2023-03-30T09:36:38.676Z,99.99
2023-03-30T09:37:38.583Z,99.99
2023-03-30T09:38:38.696Z,99.99
2023-03-30T09:39:38.709Z,99.99
2023-03-30T09:40:38.421Z,99.99
2023-03-30T09:41:39.539Z,99.99
2023-03-30T09:42:38.332Z,99.99
2023-03-30T09:43:44.767Z,99.99
2023-03-30T09:44:38.244Z,99.99
2023-03-30T09:45:38.202Z,99.99
2023-03-30T09:46:38.276Z,99.99
2023-03-30T09:47:39.376Z,99.99
2023-03-30T09:48:38.063Z,99.99
2023-03-30T09:49:38.160Z,99.99
2023-03-30T09:50:38.235Z,99.99
2023-03-30T09:51:37.937Z,99.99
2023-03-30T09:52:37.890Z,99.99
2023-03-30T09:53:37.979Z,99.99
2023-03-30T09:54:37.810Z,99.99
2023-03-30T09:55:37.997Z,99.99
2023-03-30T09:56:39.103Z,99.99
2023-03-30T09:57:37.742Z,99.99
2023-03-30T09:58:37.610Z,99.99
2023-03-30T09:59:38.860Z,99.99
2023-03-30T10:00:37.532Z,99.99
2023-03-30T10:01:37.837Z,99.99
2023-03-30T10:02:37.508Z,99.99
2023-03-30T10:03:37.498Z,99.99
2023-03-30T10:04:37.361Z,99.99
2023-03-30T10:05:38.580Z,99.99
2023-03-30T10:06:37.258Z,99.99
2023-03-30T10:07:37.467Z,99.99
2023-03-30T10:08:38.361Z,99.99
2023-03-30T10:09:37.156Z,99.99
2023-03-30T10:10:37.085Z,99.99
2023-03-30T10:11:38.325Z,99.99
2023-03-30T10:12:36.998Z,99.99
2023-03-30T10:13:37.115Z,99.99
2023-03-30T10:14:37.987Z,99.99
2023-03-30T10:15:36.886Z,99.99
2023-03-30T10:16:36.931Z,99.99
2023-03-30T10:17:36.963Z,99.99
2023-03-30T10:18:36.733Z,99.99
2023-03-30T10:19:38.966Z,99.99
2023-03-30T10:20:36.665Z,98.86
2023-03-30T10:21:36.614Z,97.52
2023-03-30T10:22:36.564Z,95.94
2023-03-30T10:23:38.652Z,95.27
2023-03-30T10:24:36.473Z,94.89
2023-03-30T10:25:36.789Z,95.65
2023-03-30T10:26:36.397Z,96.42
2023-03-30T10:27:36.359Z,92.30
2023-03-30T10:28:36.311Z,90.53
2023-03-30T10:29:37.424Z,91.49
2023-03-30T10:30:36.276Z,91.77
2023-03-30T10:31:36.345Z,89.28
2023-03-30T10:32:36.197Z,88.51
2023-03-30T10:33:36.099Z,90.72
2023-03-30T10:34:36.055Z,89.66
2023-03-30T10:35:37.190Z,88.03
2023-03-30T10:36:37.432Z,87.46
2023-03-30T10:37:36.158Z,87.55
2023-03-30T10:38:35.893Z,85.83
2023-03-30T10:39:35.850Z,86.50
2023-03-30T10:40:35.827Z,84.30
2023-03-30T10:41:35.992Z,85.06
2023-03-30T10:42:35.739Z,86.12
2023-03-30T10:43:35.791Z,89.09
2023-03-30T10:44:35.638Z,87.65
2023-03-30T10:45:35.615Z,85.21
2023-03-30T10:46:35.608Z,84.34
2023-03-30T10:47:37.750Z,83.72
2023-03-30T10:48:36.812Z,83.95
2023-03-30T10:49:36.557Z,82.57
2023-03-30T10:50:35.413Z,82.67
2023-03-30T10:51:35.342Z,83.25
2023-03-30T10:52:37.815Z,80.60
2023-03-30T10:53:35.267Z,81.56
2023-03-30T10:54:35.258Z,80.03
2023-03-30T10:55:35.180Z,81.18
2023-03-30T10:56:37.542Z,82.52
2023-03-30T10:57:35.097Z,84.15
2023-03-30T10:58:35.293Z,83.58
2023-03-30T10:59:42.949Z,82.94
2023-03-30T11:00:43.022Z,83.04
2023-03-30T11:01:43.568Z,82.46
2023-03-30T11:02:44.608Z,82.70
2023-03-30T11:03:42.714Z,79.63
2023-03-30T11:04:34.924Z,78.32
2023-03-30T11:05:42.640Z,77.84
2023-03-30T11:06:34.934Z,77.46
2023-03-30T11:07:34.713Z,75.45
2023-03-30T11:08:35.775Z,75.54
2023-03-30T11:09:34.594Z,74.19
2023-03-30T11:10:34.558Z,75.25
2023-03-30T11:11:35.996Z,74.26
2023-03-30T11:12:34.470Z,75.15
2023-03-30T11:13:34.578Z,73.91
2023-03-30T11:14:34.388Z,74.29
2023-03-30T11:15:35.616Z,75.06
2023-03-30T11:16:34.479Z,74.19
2023-03-30T11:17:36.512Z,74.26
2023-03-30T11:18:34.296Z,75.12
2023-03-30T11:19:34.416Z,76.17
2023-03-30T11:20:34.135Z,75.89
2023-03-30T11:21:34.221Z,75.31
2023-03-30T11:22:34.057Z,75.40
2023-03-30T11:23:35.267Z,74.16
2023-03-30T11:24:34.211Z,74.06
2023-03-30T11:25:33.966Z,75.12
2023-03-30T11:26:33.890Z,75.02
2023-03-30T11:27:34.063Z,74.16
2023-03-30T11:28:33.808Z,75.12
2023-03-30T11:29:33.870Z,73.97
2023-03-30T11:30:33.746Z,75.31
2023-03-30T11:31:34.928Z,75.75
2023-03-30T11:32:34.002Z,75.18
2023-03-30T11:33:33.698Z,75.08
2023-03-30T11:34:33.584Z,75.27
2023-03-30T11:35:33.845Z,76.90
2023-03-30T11:36:33.466Z,77.44
2023-03-30T11:37:33.637Z,77.53
2023-03-30T11:38:33.384Z,76.96
2023-03-30T11:39:33.641Z,77.63
2023-03-30T11:40:36.770Z,79.16
2023-03-30T11:41:33.344Z,79.83
2023-03-30T11:42:33.221Z,78.64
2023-03-30T11:43:33.380Z,79.89
2023-03-30T11:44:33.160Z,82.29
2023-03-30T11:45:33.288Z,81.04
2023-03-30T11:46:33.077Z,81.33
2023-03-30T11:47:33.513Z,82.19
2023-03-30T11:48:32.968Z,83.25
2023-03-30T11:49:33.000Z,82.09
2023-03-30T11:50:32.889Z,82.53
2023-03-30T11:51:33.934Z,83.11
2023-03-30T11:52:32.932Z,83.30
2023-03-30T11:53:32.776Z,81.57
2023-03-30T11:54:35.189Z,79.28
2023-03-30T11:55:32.676Z,79.37
2023-03-30T11:56:32.760Z,79.37
2023-03-30T11:57:32.575Z,79.75
2023-03-30T11:58:32.539Z,81.05
2023-03-30T11:59:33.799Z,80.62
2023-03-30T12:00:32.442Z,79.62
2023-03-30T12:01:34.637Z,78.86
2023-03-30T12:02:32.409Z,79.91
2023-03-30T12:03:32.635Z,80.62
2023-03-30T12:04:54.645Z,80.04
2023-03-30T12:05:32.252Z,80.52
2023-03-30T12:06:32.316Z,81.54
2023-03-30T12:07:32.136Z,81.82
2023-03-30T12:08:32.319Z,84.02
2023-03-30T12:09:32.182Z,83.93
2023-03-30T12:10:32.010Z,83.60
2023-03-30T12:11:31.981Z,83.93
2023-03-30T12:12:34.200Z,83.60
2023-03-30T12:13:44.521Z,84.98
2023-03-30T12:14:31.849Z,85.94
2023-03-30T12:15:32.172Z,83.12
2023-03-30T12:16:31.868Z,84.36
2023-03-30T12:17:31.990Z,84.08
2023-03-30T12:18:31.662Z,84.94
2023-03-30T12:19:33.136Z,87.71
2023-03-30T12:20:31.590Z,88.67
2023-03-30T12:21:32.866Z,90.58
2023-03-30T12:22:31.496Z,91.20
2023-03-30T12:23:31.440Z,92.83
2023-03-30T12:24:31.620Z,94.93
2023-03-30T12:25:31.388Z,97.90
2023-03-30T12:26:31.448Z,97.52
2023-03-30T12:27:31.270Z,98.18
2023-03-30T12:28:44.218Z,98.18
2023-03-30T12:29:52.478Z,99.71
2023-03-30T12:30:31.259Z,99.99
2023-03-30T12:31:31.241Z,99.81
2023-03-30T12:32:33.342Z,99.76
2023-03-30T12:33:30.995Z,99.99
2023-03-30T12:34:31.080Z,99.99
2023-03-30T12:35:30.936Z,99.99
2023-03-30T12:36:31.508Z,99.99
2023-03-30T12:37:30.816Z,99.99
2023-03-30T12:38:30.907Z,99.99
2023-03-30T12:39:30.722Z,99.99
2023-03-30T12:40:31.969Z,99.99
2023-03-30T12:41:30.638Z,99.99
2023-03-30T12:42:31.961Z,99.99
2023-03-30T12:43:30.543Z,99.99
2023-03-30T12:44:30.748Z,99.99
2023-03-30T12:45:30.498Z,99.99
2023-03-30T12:46:30.587Z,99.99
2023-03-30T12:47:30.531Z,99.99
2023-03-30T12:48:30.481Z,99.99
2023-03-30T12:49:30.282Z,99.99
2023-03-30T12:50:31.316Z,99.99
2023-03-30T12:51:30.200Z,99.99
2023-03-30T12:52:32.471Z,99.99
2023-03-30T12:53:30.132Z,99.99
2023-03-30T12:54:30.320Z,99.99
2023-03-30T12:55:30.013Z,99.66
2023-03-30T12:56:30.112Z,97.66